Time,TemperatureF,DewpointF,PressureIn,WindDirection,WindDirectionDegrees,WindSpeedMPH,WindSpeedGustMPH,Humidity,HourlyPrecipIn,Conditions,Clouds,dailyrainin,SoftwareType,DateUTC
2013-01-11 00:00:00,34.8,34.3,29.75,SE,130,1.0,5.0,98,0.00,,,0.24,Wunderground v.1.15,2013-01-11 06:00:00,
2013-01-11 00:05:00,34.8,34.3,29.75,ESE,122,7.0,9.0,98,0.00,,,0.24,Wunderground v.1.15,2013-01-11 06:05:00,
2013-01-11 00:11:00,34.8,34.3,29.75,SE,142,6.0,7.0,98,0.00,,,0.24,Wunderground v.1.15,2013-01-11 06:11:00,
2013-01-11 00:16:00,34.8,34.3,29.75,SE,142,8.0,9.0,98,0.00,,,0.24,Wunderground v.1.15,2013-01-11 06:16:00,
2013-01-11 00:22:00,34.9,34.4,29.75,SSE,162,5.0,7.0,98,0.00,,,0.24,Wunderground v.1.15,2013-01-11 06:22:00,
2013-01-11 00:28:00,35.0,34.5,29.75,SSE,165,6.0,8.0,98,0.00,,,0.24,Wunderground v.1.15,2013-01-11 06:28:00,
2013-01-11 00:34:00,34.9,34.4,29.74,South,182,10.0,10.0,98,0.00,,,0.24,Wunderground v.1.15,2013-01-11 06:34:00,
2013-01-11 00:40:00,34.9,34.4,29.73,SSE,163,5.0,5.0,98,0.00,,,0.24,Wunderground v.1.15,2013-01-11 06:40:00,
2013-01-11 00:45:00,35.0,34.5,29.73,SSE,151,8.0,8.0,98,0.00,,,0.24,Wunderground v.1.15,2013-01-11 06:45:00,
2013-01-11 00:51:00,35.0,34.5,29.72,ESE,106,4.0,4.0,98,0.00,,,0.24,Wunderground v.1.15,2013-01-11 06:51:00,
2013-01-11 00:57:00,35.0,34.5,29.72,SSE,153,0.0,6.0,98,0.00,,,0.24,Wunderground v.1.15,2013-01-11 06:57:00,
2013-01-11 01:02:00,35.1,34.6,29.73,SSE,152,8.0,8.0,98,0.00,,,0.24,Wunderground v.1.15,2013-01-11 07:02:00,
2013-01-11 01:08:00,35.2,34.7,29.72,SSE,165,8.0,9.0,98,0.00,,,0.24,Wunderground v.1.15,2013-01-11 07:08:00,
2013-01-11 01:13:00,35.2,34.7,29.72,SSE,159,2.0,6.0,98,0.00,,,0.24,Wunderground v.1.15,2013-01-11 07:13:00,
2013-01-11 01:19:00,35.2,34.7,29.71,SSE,157,0.0,7.0,98,0.00,,,0.24,Wunderground v.1.15,2013-01-11 07:19:00,
2013-01-11 01:24:00,35.2,34.7,29.71,SSE,157,2.0,5.0,98,0.00,,,0.24,Wunderground v.1.15,2013-01-11 07:24:00,
2013-01-11 01:30:00,35.2,34.7,29.71,SSE,157,2.0,3.0,98,0.00,,,0.24,Wunderground v.1.15,2013-01-11 07:30:00,
2013-01-11 01:36:00,35.2,34.7,29.70,South,173,10.0,10.0,98,0.00,,,0.24,Wunderground v.1.15,2013-01-11 07:36:00,
2013-01-11 01:41:00,35.3,34.8,29.70,SSE,157,5.0,6.0,98,0.00,,,0.24,Wunderground v.1.15,2013-01-11 07:41:00,
2013-01-11 01:46:00,35.3,34.8,29.70,SSE,157,6.0,6.0,98,0.00,,,0.24,Wunderground v.1.15,2013-01-11 07:46:00,
2013-01-11 01:51:00,35.3,34.8,29.69,SSE,148,5.0,5.0,98,0.00,,,0.24,Wunderground v.1.15,2013-01-11 07:51:00,
2013-01-11 01:57:00,35.4,34.9,29.70,SE,130,6.0,7.0,98,0.00,,,0.24,Wunderground v.1.15,2013-01-11 07:57:00,
2013-01-11 02:02:00,35.5,35.0,29.69,SE,144,0.0,6.0,98,0.00,,,0.24,Wunderground v.1.15,2013-01-11 08:02:00,
2013-01-11 02:07:00,35.5,35.0,29.70,SSE,148,6.0,7.0,98,0.00,,,0.24,Wunderground v.1.15,2013-01-11 08:07:00,
2013-01-11 02:12:00,35.5,35.0,29.70,SSW,192,6.0,8.0,98,0.00,,,0.24,Wunderground v.1.15,2013-01-11 08:12:00,
2013-01-11 02:17:00,35.5,35.0,29.69,SSE,163,0.0,8.0,98,0.00,,,0.24,Wunderground v.1.15,2013-01-11 08:17:00,
2013-01-11 02:22:00,35.5,35.0,29.69,SE,144,0.0,6.0,98,0.00,,,0.24,Wunderground v.1.15,2013-01-11 08:22:00,
2013-01-11 02:28:00,35.5,35.0,29.69,SSE,148,0.0,9.0,98,0.00,,,0.24,Wunderground v.1.15,2013-01-11 08:28:00,
2013-01-11 02:33:00,35.5,35.0,29.68,SSE,154,2.0,6.0,98,0.00,,,0.00,Wunderground v.1.15,2013-01-11 08:33:00,
2013-01-11 02:38:00,35.5,35.0,29.68,SSE,155,2.0,8.0,98,0.00,,,0.00,Wunderground v.1.15,2013-01-11 08:38:00,
2013-01-11 02:43:00,35.5,35.2,29.68,SSE,167,6.0,7.0,99,0.00,,,0.00,Wunderground v.1.15,2013-01-11 08:43:00,
2013-01-11 02:48:00,35.5,35.2,29.68,SE,140,4.0,8.0,99,0.00,,,0.00,Wunderground v.1.15,2013-01-11 08:48:00,
2013-01-11 02:53:00,35.5,35.2,29.67,SSE,147,5.0,6.0,99,0.00,,,0.00,Wunderground v.1.15,2013-01-11 08:53:00,
2013-01-11 02:59:00,35.4,35.1,29.67,South,174,1.0,6.0,99,0.00,,,0.00,Wunderground v.1.15,2013-01-11 08:59:00,
2013-01-11 03:04:00,35.4,35.1,29.67,South,183,5.0,7.0,99,0.00,,,0.00,Wunderground v.1.15,2013-01-11 09:04:00,
2013-01-11 03:09:00,35.5,35.2,29.67,South,169,6.0,7.0,99,0.00,,,0.00,Wunderground v.1.15,2013-01-11 09:09:00,
2013-01-11 03:14:00,35.5,35.2,29.67,South,190,4.0,7.0,99,0.00,,,0.01,Wunderground v.1.15,2013-01-11 09:14:00,
2013-01-11 03:19:00,35.5,35.2,29.66,SSE,165,5.0,7.0,99,0.00,,,0.01,Wunderground v.1.15,2013-01-11 09:19:00,
2013-01-11 03:24:00,35.5,35.2,29.66,SSE,161,5.0,5.0,99,0.00,,,0.01,Wunderground v.1.15,2013-01-11 09:24:00,
2013-01-11 03:29:00,35.5,35.2,29.66,ESE,119,0.0,7.0,99,0.00,,,0.01,Wunderground v.1.15,2013-01-11 09:29:00,
2013-01-11 03:34:00,35.5,35.2,29.65,SE,145,2.0,6.0,99,0.00,,,0.01,Wunderground v.1.15,2013-01-11 09:34:00,
2013-01-11 03:39:00,35.5,35.2,29.66,SE,134,2.0,6.0,99,0.00,,,0.01,Wunderground v.1.15,2013-01-11 09:39:00,
2013-01-11 03:45:00,35.5,35.2,29.65,South,175,2.0,6.0,99,0.00,,,0.01,Wunderground v.1.15,2013-01-11 09:45:00,
2013-01-11 03:50:00,35.5,35.2,29.65,SSE,167,0.0,3.0,99,0.00,,,0.01,Wunderground v.1.15,2013-01-11 09:50:00,
2013-01-11 03:55:00,35.5,35.2,29.65,SE,142,0.0,7.0,99,0.00,,,0.01,Wunderground v.1.15,2013-01-11 09:55:00,
2013-01-11 04:00:00,35.5,35.2,29.65,SSE,154,2.0,5.0,99,0.00,,,0.01,Wunderground v.1.15,2013-01-11 10:00:00,
2013-01-11 04:05:00,35.5,35.2,29.65,South,176,4.0,7.0,99,0.00,,,0.01,Wunderground v.1.15,2013-01-11 10:05:00,
2013-01-11 04:10:00,35.5,35.2,29.65,SSE,150,2.0,5.0,99,0.00,,,0.01,Wunderground v.1.15,2013-01-11 10:10:00,
2013-01-11 04:15:00,35.5,35.2,29.64,SSE,167,8.0,8.0,99,0.00,,,0.01,Wunderground v.1.15,2013-01-11 10:15:00,
2013-01-11 04:20:00,35.5,35.2,29.64,SSE,157,4.0,6.0,99,0.00,,,0.01,Wunderground v.1.15,2013-01-11 10:20:00,
2013-01-11 04:25:00,35.5,35.2,29.64,SSE,155,4.0,6.0,99,0.00,,,0.01,Wunderground v.1.15,2013-01-11 10:25:00,
2013-01-11 04:30:00,35.5,35.2,29.64,SSE,155,1.0,5.0,99,0.00,,,0.01,Wunderground v.1.15,2013-01-11 10:30:00,
2013-01-11 04:36:00,35.5,35.2,29.63,South,171,4.0,5.0,99,0.00,,,0.01,Wunderground v.1.15,2013-01-11 10:36:00,
2013-01-11 04:41:00,35.5,35.2,29.63,South,169,0.0,2.0,99,0.00,,,0.01,Wunderground v.1.15,2013-01-11 10:41:00,
2013-01-11 04:46:00,35.5,35.2,29.63,SSE,153,4.0,7.0,99,0.00,,,0.01,Wunderground v.1.15,2013-01-11 10:46:00,
2013-01-11 04:51:00,35.5,35.2,29.63,SSE,157,0.0,5.0,99,0.00,,,0.01,Wunderground v.1.15,2013-01-11 10:51:00,
2013-01-11 04:56:00,35.5,35.2,29.62,SSE,153,0.0,6.0,99,0.00,,,0.01,Wunderground v.1.15,2013-01-11 10:56:00,
2013-01-11 05:01:00,35.5,35.2,29.62,ESE,114,1.0,7.0,99,0.00,,,0.01,Wunderground v.1.15,2013-01-11 11:01:00,
2013-01-11 05:06:00,35.5,35.2,29.62,SSE,149,2.0,7.0,99,0.00,,,0.01,Wunderground v.1.15,2013-01-11 11:06:00,
2013-01-11 05:11:00,35.5,35.2,29.62,SSE,163,6.0,6.0,99,0.00,,,0.01,Wunderground v.1.15,2013-01-11 11:11:00,
2013-01-11 05:16:00,35.5,35.2,29.62,SSE,154,0.0,6.0,99,0.00,,,0.01,Wunderground v.1.15,2013-01-11 11:16:00,
2013-01-11 05:21:00,35.5,35.2,29.62,SSE,154,0.0,5.0,99,0.00,,,0.01,Wunderground v.1.15,2013-01-11 11:21:00,
2013-01-11 05:26:00,35.5,35.2,29.61,SSE,165,0.0,6.0,99,0.00,,,0.01,Wunderground v.1.15,2013-01-11 11:26:00,
2013-01-11 05:31:00,35.5,35.2,29.61,SSE,167,4.0,5.0,99,0.00,,,0.01,Wunderground v.1.15,2013-01-11 11:31:00,
2013-01-11 05:37:00,35.5,35.2,29.61,SSE,166,5.0,6.0,99,0.00,,,0.01,Wunderground v.1.15,2013-01-11 11:37:00,
2013-01-11 05:42:00,35.5,35.2,29.61,SSE,156,0.0,6.0,99,0.00,,,0.01,Wunderground v.1.15,2013-01-11 11:42:00,
2013-01-11 05:47:00,35.5,35.2,29.61,SSE,166,0.0,6.0,99,0.00,,,0.02,Wunderground v.1.15,2013-01-11 11:47:00,
2013-01-11 05:52:00,35.6,35.3,29.60,SSE,166,0.0,5.0,99,0.00,,,0.02,Wunderground v.1.15,2013-01-11 11:52:00,
2013-01-11 05:57:00,35.6,35.3,29.60,SSE,165,4.0,8.0,99,0.00,,,0.02,Wunderground v.1.15,2013-01-11 11:57:00,
2013-01-11 06:02:00,35.6,35.3,29.60,South,174,4.0,4.0,99,0.00,,,0.02,Wunderground v.1.15,2013-01-11 12:02:00,
2013-01-11 06:07:00,35.6,35.3,29.59,South,184,0.0,5.0,99,0.00,,,0.02,Wunderground v.1.15,2013-01-11 12:07:00,
2013-01-11 06:12:00,35.7,35.4,29.60,South,175,0.0,2.0,99,0.00,,,0.02,Wunderground v.1.15,2013-01-11 12:12:00,
2013-01-11 06:18:00,35.7,35.4,29.60,South,174,0.0,6.0,99,0.00,,,0.02,Wunderground v.1.15,2013-01-11 12:18:00,
2013-01-11 06:23:00,35.7,35.4,29.60,SSE,161,5.0,6.0,99,0.00,,,0.02,Wunderground v.1.15,2013-01-11 12:23:00,
2013-01-11 06:28:00,35.7,35.4,29.60,ESE,121,5.0,6.0,99,0.00,,,0.02,Wunderground v.1.15,2013-01-11 12:28:00,
2013-01-11 06:33:00,35.7,35.4,29.59,SSE,163,2.0,7.0,99,0.00,,,0.02,Wunderground v.1.15,2013-01-11 12:33:00,
2013-01-11 06:38:00,35.7,35.4,29.59,SSE,166,0.0,7.0,99,0.00,,,0.02,Wunderground v.1.15,2013-01-11 12:38:00,
2013-01-11 06:43:00,35.8,35.5,29.59,SE,140,6.0,9.0,99,0.00,,,0.02,Wunderground v.1.15,2013-01-11 12:43:00,
2013-01-11 06:48:00,35.8,35.5,29.59,SSE,162,6.0,9.0,99,0.00,,,0.02,Wunderground v.1.15,2013-01-11 12:48:00,
2013-01-11 06:53:00,35.9,35.6,29.59,SSE,157,0.0,6.0,99,0.00,,,0.02,Wunderground v.1.15,2013-01-11 12:53:00,
2013-01-11 06:58:00,35.9,35.6,29.58,SSE,154,8.0,8.0,99,0.00,,,0.02,Wunderground v.1.15,2013-01-11 12:58:00,
2013-01-11 07:03:00,35.9,35.6,29.58,SSE,167,4.0,7.0,99,0.00,,,0.02,Wunderground v.1.15,2013-01-11 13:03:00,
2013-01-11 07:09:00,35.9,35.6,29.58,SE,128,4.0,8.0,99,0.00,,,0.02,Wunderground v.1.15,2013-01-11 13:09:00,
2013-01-11 07:14:00,36.0,35.7,29.57,SE,146,6.0,9.0,99,0.00,,,0.02,Wunderground v.1.15,2013-01-11 13:14:00,
2013-01-11 07:19:00,36.0,35.7,29.58,South,170,1.0,9.0,99,0.00,,,0.02,Wunderground v.1.15,2013-01-11 13:19:00,
2013-01-11 07:24:00,36.0,35.7,29.57,SE,133,7.0,9.0,99,0.00,,,0.02,Wunderground v.1.15,2013-01-11 13:24:00,
2013-01-11 07:29:00,36.0,35.7,29.57,SSE,168,6.0,9.0,99,0.00,,,0.02,Wunderground v.1.15,2013-01-11 13:29:00,
2013-01-11 07:34:00,36.0,35.7,29.58,South,190,4.0,7.0,99,0.00,,,0.02,Wunderground v.1.15,2013-01-11 13:34:00,
2013-01-11 07:39:00,36.1,35.8,29.57,South,186,4.0,7.0,99,0.00,,,0.02,Wunderground v.1.15,2013-01-11 13:39:00,
2013-01-11 07:44:00,36.1,35.8,29.58,South,177,8.0,8.0,99,0.00,,,0.02,Wunderground v.1.15,2013-01-11 13:44:00,
2013-01-11 07:49:00,36.2,35.9,29.57,South,181,2.0,8.0,99,0.00,,,0.02,Wunderground v.1.15,2013-01-11 13:49:00,
2013-01-11 07:54:00,36.1,35.8,29.57,SSE,165,8.0,9.0,99,0.00,,,0.02,Wunderground v.1.15,2013-01-11 13:54:00,
2013-01-11 07:59:00,36.2,35.9,29.58,South,183,0.0,9.0,99,0.00,,,0.02,Wunderground v.1.15,2013-01-11 13:59:00,
2013-01-11 08:04:00,36.2,35.9,29.57,South,181,3.0,9.0,99,0.00,,,0.02,Wunderground v.1.15,2013-01-11 14:04:00,
2013-01-11 08:09:00,36.3,36.0,29.57,SSE,158,4.0,9.0,99,0.00,,,0.02,Wunderground v.1.15,2013-01-11 14:09:00,
2013-01-11 08:14:00,36.3,36.0,29.58,SSW,205,0.0,9.0,99,0.00,,,0.02,Wunderground v.1.15,2013-01-11 14:14:00,
2013-01-11 08:20:00,36.4,36.1,29.57,SSW,201,1.0,3.0,99,0.00,,,0.02,Wunderground v.1.15,2013-01-11 14:20:00,
2013-01-11 08:25:00,36.4,36.1,29.57,SSW,196,6.0,8.0,99,0.00,,,0.02,Wunderground v.1.15,2013-01-11 14:25:00,
2013-01-11 08:30:00,36.5,36.2,29.57,SE,142,5.0,5.0,99,0.00,,,0.02,Wunderground v.1.15,2013-01-11 14:30:00,
2013-01-11 08:35:00,36.5,36.2,29.57,SSE,165,0.0,7.0,99,0.00,,,0.02,Wunderground v.1.15,2013-01-11 14:35:00,
2013-01-11 08:40:00,36.5,36.2,29.56,SSE,159,5.0,5.0,99,0.00,,,0.02,Wunderground v.1.15,2013-01-11 14:40:00,
2013-01-11 08:45:00,36.5,36.2,29.56,South,169,5.0,7.0,99,0.00,,,0.02,Wunderground v.1.15,2013-01-11 14:45:00,
2013-01-11 08:50:00,36.6,36.3,29.56,SSE,163,2.0,4.0,99,0.00,,,0.02,Wunderground v.1.15,2013-01-11 14:50:00,
2013-01-11 08:55:00,36.6,36.3,29.57,SSW,210,2.0,9.0,99,0.00,,,0.02,Wunderground v.1.15,2013-01-11 14:55:00,
2013-01-11 09:01:00,36.6,36.3,29.56,SSE,148,0.0,6.0,99,0.00,,,0.02,Wunderground v.1.15,2013-01-11 15:01:00,
2013-01-11 09:06:00,36.6,36.3,29.56,SSE,165,6.0,7.0,99,0.00,,,0.02,Wunderground v.1.15,2013-01-11 15:06:00,
2013-01-11 09:11:00,36.6,36.3,29.56,SSE,162,0.0,5.0,99,0.00,,,0.02,Wunderground v.1.15,2013-01-11 15:11:00,
2013-01-11 09:16:00,36.6,36.3,29.56,South,175,0.0,7.0,99,0.00,,,0.02,Wunderground v.1.15,2013-01-11 15:16:00,
2013-01-11 09:21:00,36.6,36.3,29.56,South,171,2.0,7.0,99,0.00,,,0.02,Wunderground v.1.15,2013-01-11 15:21:00,
2013-01-11 09:27:00,36.7,36.4,29.56,SSE,160,7.0,8.0,99,0.00,,,0.02,Wunderground v.1.15,2013-01-11 15:27:00,
2013-01-11 09:32:00,36.7,36.4,29.56,SE,139,5.0,5.0,99,0.00,,,0.02,Wunderground v.1.15,2013-01-11 15:32:00,
2013-01-11 09:37:00,36.8,36.5,29.57,South,191,4.0,8.0,99,0.00,,,0.02,Wunderground v.1.15,2013-01-11 15:37:00,
2013-01-11 09:42:00,36.9,36.6,29.57,SSW,192,5.0,6.0,99,0.00,,,0.02,Wunderground v.1.15,2013-01-11 15:42:00,
2013-01-11 09:47:00,36.9,36.6,29.58,SSW,211,2.0,7.0,99,0.00,,,0.02,Wunderground v.1.15,2013-01-11 15:47:00,
2013-01-11 09:52:00,37.0,36.7,29.58,South,171,4.0,6.0,99,0.00,,,0.02,Wunderground v.1.15,2013-01-11 15:52:00,
2013-01-11 09:57:00,37.0,36.7,29.58,South,188,3.0,6.0,99,0.00,,,0.02,Wunderground v.1.15,2013-01-11 15:57:00,
2013-01-11 10:02:00,37.1,36.8,29.57,South,170,4.0,6.0,99,0.00,,,0.02,Wunderground v.1.15,2013-01-11 16:02:00,
2013-01-11 10:07:00,37.1,36.8,29.57,South,182,5.0,7.0,99,0.00,,,0.02,Wunderground v.1.15,2013-01-11 16:07:00,
2013-01-11 10:12:00,37.1,36.8,29.58,South,169,0.0,5.0,99,0.00,,,0.02,Wunderground v.1.15,2013-01-11 16:12:00,
2013-01-11 10:17:00,37.1,36.8,29.57,South,181,0.0,6.0,99,0.00,,,0.02,Wunderground v.1.15,2013-01-11 16:17:00,
2013-01-11 10:23:00,37.1,36.8,29.57,South,178,4.0,4.0,99,0.00,,,0.02,Wunderground v.1.15,2013-01-11 16:23:00,
2013-01-11 10:28:00,37.1,36.8,29.57,South,187,0.0,6.0,99,0.00,,,0.02,Wunderground v.1.15,2013-01-11 16:28:00,
2013-01-11 10:33:00,37.1,36.8,29.57,South,169,5.0,7.0,99,0.00,,,0.02,Wunderground v.1.15,2013-01-11 16:33:00,
2013-01-11 10:38:00,37.2,36.9,29.57,South,169,2.0,7.0,99,0.00,,,0.02,Wunderground v.1.15,2013-01-11 16:38:00,
2013-01-11 10:43:00,37.3,37.0,29.57,South,169,0.0,3.0,99,0.00,,,0.02,Wunderground v.1.15,2013-01-11 16:43:00,
2013-01-11 10:48:00,37.3,37.0,29.57,SSE,168,0.0,4.0,99,0.00,,,0.02,Wunderground v.1.15,2013-01-11 16:48:00,
2013-01-11 10:53:00,37.5,37.2,29.57,SSE,158,0.0,6.0,99,0.00,,,0.02,Wunderground v.1.15,2013-01-11 16:53:00,
2013-01-11 10:59:00,37.5,37.2,29.56,SSE,153,1.0,6.0,99,0.00,,,0.02,Wunderground v.1.15,2013-01-11 16:59:00,
2013-01-11 11:04:00,37.6,37.3,29.55,SSE,153,0.0,4.0,99,0.00,,,0.02,Wunderground v.1.15,2013-01-11 17:04:00,
2013-01-11 11:09:00,37.6,37.3,29.55,SSE,153,0.0,6.0,99,0.00,,,0.02,Wunderground v.1.15,2013-01-11 17:09:00,
2013-01-11 11:14:00,37.7,37.4,29.55,SSE,152,0.0,5.0,99,0.00,,,0.02,Wunderground v.1.15,2013-01-11 17:14:00,
2013-01-11 11:19:00,37.7,37.4,29.55,SSE,158,0.0,5.0,99,0.00,,,0.02,Wunderground v.1.15,2013-01-11 17:19:00,
2013-01-11 11:24:00,37.8,37.5,29.55,SSE,158,0.0,5.0,99,0.00,,,0.02,Wunderground v.1.15,2013-01-11 17:24:00,
2013-01-11 11:30:00,37.8,37.5,29.55,SSE,157,2.0,2.0,99,0.00,,,0.02,Wunderground v.1.15,2013-01-11 17:30:00,
2013-01-11 11:35:00,37.8,37.5,29.54,SSE,156,2.0,6.0,99,0.00,,,0.02,Wunderground v.1.15,2013-01-11 17:35:00,
2013-01-11 11:40:00,37.8,37.5,29.53,SSE,156,0.0,1.0,99,0.00,,,0.02,Wunderground v.1.15,2013-01-11 17:40:00,
2013-01-11 11:45:00,37.9,37.6,29.54,SE,144,6.0,6.0,99,0.00,,,0.02,Wunderground v.1.15,2013-01-11 17:45:00,
2013-01-11 11:50:00,37.9,37.6,29.53,SSE,163,0.0,4.0,99,0.00,,,0.02,Wunderground v.1.15,2013-01-11 17:50:00,
2013-01-11 11:55:00,38.0,37.7,29.52,SE,138,0.0,7.0,99,0.00,,,0.02,Wunderground v.1.15,2013-01-11 17:55:00,
2013-01-11 12:01:00,38.1,37.8,29.52,SSE,150,0.0,4.0,99,0.00,,,0.02,Wunderground v.1.15,2013-01-11 18:01:00,
2013-01-11 12:06:00,38.2,37.9,29.52,SE,136,0.0,6.0,99,0.00,,,0.02,Wunderground v.1.15,2013-01-11 18:06:00,
2013-01-11 12:11:00,38.2,37.9,29.51,SE,146,2.0,5.0,99,0.00,,,0.02,Wunderground v.1.15,2013-01-11 18:11:00,
2013-01-11 12:16:00,38.3,38.0,29.51,South,175,6.0,6.0,99,0.00,,,0.02,Wunderground v.1.15,2013-01-11 18:16:00,
2013-01-11 12:21:00,38.4,38.1,29.51,ESE,119,5.0,5.0,99,0.00,,,0.02,Wunderground v.1.15,2013-01-11 18:21:00,
2013-01-11 12:26:00,38.4,38.1,29.51,South,178,5.0,9.0,99,0.00,,,0.02,Wunderground v.1.15,2013-01-11 18:26:00,
2013-01-11 12:32:00,38.4,38.1,29.51,SSE,159,6.0,7.0,99,0.00,,,0.02,Wunderground v.1.15,2013-01-11 18:32:00,
2013-01-11 12:37:00,38.4,38.1,29.51,SSE,165,1.0,7.0,99,0.00,,,0.02,Wunderground v.1.15,2013-01-11 18:37:00,
2013-01-11 12:42:00,38.4,38.4,29.50,SSE,154,7.0,7.0,100,0.00,,,0.02,Wunderground v.1.15,2013-01-11 18:42:00,
2013-01-11 12:47:00,38.4,38.4,29.50,SE,138,0.0,7.0,100,0.00,,,0.02,Wunderground v.1.15,2013-01-11 18:47:00,
2013-01-11 12:52:00,38.5,38.5,29.50,ESE,116,4.0,5.0,100,0.00,,,0.02,Wunderground v.1.15,2013-01-11 18:52:00,
2013-01-11 12:57:00,38.5,38.5,29.50,South,173,0.0,7.0,100,0.00,,,0.02,Wunderground v.1.15,2013-01-11 18:57:00,
2013-01-11 13:02:00,38.5,38.2,29.49,SSE,167,1.0,6.0,99,0.00,,,0.02,Wunderground v.1.15,2013-01-11 19:02:00,
2013-01-11 13:07:00,38.6,38.3,29.49,ESE,120,2.0,9.0,99,0.00,,,0.02,Wunderground v.1.15,2013-01-11 19:07:00,
2013-01-11 13:12:00,38.6,38.3,29.50,South,169,4.0,8.0,99,0.00,,,0.02,Wunderground v.1.15,2013-01-11 19:12:00,
2013-01-11 13:17:00,38.6,38.3,29.50,South,169,0.0,8.0,99,0.00,,,0.02,Wunderground v.1.15,2013-01-11 19:17:00,
2013-01-11 13:22:00,38.6,38.3,29.50,SSE,151,6.0,6.0,99,0.00,,,0.02,Wunderground v.1.15,2013-01-11 19:22:00,
2013-01-11 13:28:00,38.6,38.3,29.50,SSW,192,1.0,8.0,99,0.00,,,0.02,Wunderground v.1.15,2013-01-11 19:28:00,
2013-01-11 13:33:00,38.6,38.3,29.49,South,171,4.0,6.0,99,0.00,,,0.02,Wunderground v.1.15,2013-01-11 19:33:00,
2013-01-11 13:38:00,38.7,38.4,29.49,SSW,202,0.0,6.0,99,0.00,,,0.02,Wunderground v.1.15,2013-01-11 19:38:00,
2013-01-11 13:43:00,38.7,38.4,29.49,South,176,5.0,6.0,99,0.00,,,0.02,Wunderground v.1.15,2013-01-11 19:43:00,
2013-01-11 13:48:00,38.7,38.4,29.49,South,175,4.0,9.0,99,0.00,,,0.02,Wunderground v.1.15,2013-01-11 19:48:00,
2013-01-11 13:53:00,38.6,38.3,29.49,South,189,0.0,5.0,99,0.00,,,0.02,Wunderground v.1.15,2013-01-11 19:53:00,
2013-01-11 13:58:00,38.7,38.4,29.49,SSW,202,6.0,8.0,99,0.00,,,0.02,Wunderground v.1.15,2013-01-11 19:58:00,
2013-01-11 14:03:00,38.7,38.4,29.49,SE,145,6.0,8.0,99,0.00,,,0.02,Wunderground v.1.15,2013-01-11 20:03:00,
2013-01-11 14:08:00,38.7,38.4,29.49,South,173,0.0,8.0,99,0.00,,,0.02,Wunderground v.1.15,2013-01-11 20:08:00,
2013-01-11 14:13:00,38.6,38.3,29.49,South,189,5.0,5.0,99,0.00,,,0.02,Wunderground v.1.15,2013-01-11 20:13:00,
2013-01-11 14:19:00,38.6,38.3,29.49,SSE,167,0.0,7.0,99,0.00,,,0.02,Wunderground v.1.15,2013-01-11 20:19:00,
2013-01-11 14:24:00,38.5,38.2,29.49,South,170,5.0,8.0,99,0.00,,,0.02,Wunderground v.1.15,2013-01-11 20:24:00,
2013-01-11 14:29:00,38.5,38.2,29.49,SSE,168,4.0,8.0,99,0.00,,,0.02,Wunderground v.1.15,2013-01-11 20:29:00,
2013-01-11 14:34:00,38.4,38.1,29.49,SSE,166,5.0,6.0,99,0.00,,,0.02,Wunderground v.1.15,2013-01-11 20:34:00,
2013-01-11 14:39:00,38.5,38.2,29.49,SSE,161,6.0,8.0,99,0.00,,,0.02,Wunderground v.1.15,2013-01-11 20:39:00,
2013-01-11 14:44:00,38.4,38.1,29.48,SSE,165,2.0,7.0,99,0.00,,,0.02,Wunderground v.1.15,2013-01-11 20:44:00,
2013-01-11 14:49:00,38.4,38.1,29.48,South,188,3.0,7.0,99,0.00,,,0.02,Wunderground v.1.15,2013-01-11 20:49:00,
2013-01-11 14:54:00,38.4,38.1,29.48,SE,141,0.0,6.0,99,0.00,,,0.02,Wunderground v.1.15,2013-01-11 20:54:00,
2013-01-11 14:59:00,38.3,38.0,29.48,SSE,156,6.0,7.0,99,0.00,,,0.02,Wunderground v.1.15,2013-01-11 20:59:00,
2013-01-11 15:04:00,38.3,38.0,29.48,SE,139,0.0,6.0,99,0.00,,,0.02,Wunderground v.1.15,2013-01-11 21:04:00,
2013-01-11 15:10:00,38.3,38.0,29.47,SE,138,6.0,6.0,99,0.00,,,0.02,Wunderground v.1.15,2013-01-11 21:10:00,
2013-01-11 15:15:00,38.2,37.9,29.47,SSE,147,0.0,6.0,99,0.00,,,0.02,Wunderground v.1.15,2013-01-11 21:15:00,
2013-01-11 15:20:00,38.2,37.9,29.47,SE,127,0.0,2.0,99,0.00,,,0.02,Wunderground v.1.15,2013-01-11 21:20:00,
2013-01-11 15:25:00,38.2,37.9,29.47,SE,134,0.0,5.0,99,0.00,,,0.02,Wunderground v.1.15,2013-01-11 21:25:00,
2013-01-11 15:30:00,38.2,37.9,29.47,ESE,119,0.0,2.0,99,0.00,,,0.02,Wunderground v.1.15,2013-01-11 21:30:00,
2013-01-11 15:35:00,38.2,37.9,29.47,South,178,0.0,7.0,99,0.00,,,0.02,Wunderground v.1.15,2013-01-11 21:35:00,
2013-01-11 15:40:00,38.2,37.9,29.47,SE,139,0.0,1.0,99,0.00,,,0.02,Wunderground v.1.15,2013-01-11 21:40:00,
2013-01-11 15:46:00,38.2,37.9,29.47,SE,146,2.0,5.0,99,0.00,,,0.02,Wunderground v.1.15,2013-01-11 21:46:00,
2013-01-11 15:51:00,38.2,37.9,29.47,SSE,149,4.0,4.0,99,0.00,,,0.02,Wunderground v.1.15,2013-01-11 21:51:00,
2013-01-11 15:56:00,38.2,37.9,29.47,SSE,153,2.0,7.0,99,0.00,,,0.03,Wunderground v.1.15,2013-01-11 21:56:00,
2013-01-11 16:01:00,38.1,37.8,29.47,ESE,123,2.0,5.0,99,0.00,,,0.03,Wunderground v.1.15,2013-01-11 22:01:00,
2013-01-11 16:06:00,38.2,37.9,29.47,SE,131,0.0,6.0,99,0.00,,,0.03,Wunderground v.1.15,2013-01-11 22:06:00,
2013-01-11 16:11:00,38.1,37.8,29.47,SE,130,0.0,2.0,99,0.00,,,0.03,Wunderground v.1.15,2013-01-11 22:11:00,
2013-01-11 16:16:00,38.1,37.8,29.47,SSE,153,2.0,9.0,99,0.00,,,0.03,Wunderground v.1.15,2013-01-11 22:16:00,
2013-01-11 16:21:00,38.1,37.8,29.47,SSE,153,0.0,2.0,99,0.00,,,0.03,Wunderground v.1.15,2013-01-11 22:21:00,
2013-01-11 16:27:00,38.0,37.7,29.46,SE,140,0.0,7.0,99,0.00,,,0.03,Wunderground v.1.15,2013-01-11 22:27:00,
2013-01-11 16:32:00,37.9,37.6,29.45,SE,125,0.0,6.0,99,0.00,,,0.03,Wunderground v.1.15,2013-01-11 22:32:00,
2013-01-11 16:37:00,37.9,37.6,29.44,ESE,107,5.0,6.0,99,0.00,,,0.03,Wunderground v.1.15,2013-01-11 22:37:00,
2013-01-11 16:42:00,37.8,37.5,29.45,SE,126,0.0,7.0,99,0.00,,,0.04,Wunderground v.1.15,2013-01-11 22:42:00,
2013-01-11 16:47:00,37.8,37.5,29.45,ESE,109,0.0,7.0,99,0.00,,,0.04,Wunderground v.1.15,2013-01-11 22:47:00,
2013-01-11 16:52:00,37.8,37.5,29.45,SE,124,0.0,6.0,99,0.00,,,0.04,Wunderground v.1.15,2013-01-11 22:52:00,
2013-01-11 16:58:00,37.8,37.5,29.45,SSE,155,0.0,6.0,99,0.00,,,0.04,Wunderground v.1.15,2013-01-11 22:58:00,
2013-01-11 17:03:00,37.8,37.5,29.45,ESE,113,0.0,7.0,99,0.00,,,0.04,Wunderground v.1.15,2013-01-11 23:03:00,
2013-01-11 17:08:00,37.8,37.5,29.45,ESE,121,0.0,7.0,99,0.00,,,0.04,Wunderground v.1.15,2013-01-11 23:08:00,
2013-01-11 17:13:00,37.8,37.5,29.44,SE,144,0.0,4.0,99,0.00,,,0.04,Wunderground v.1.15,2013-01-11 23:13:00,
2013-01-11 17:18:00,37.8,37.5,29.45,SSE,147,0.0,6.0,99,0.00,,,0.04,Wunderground v.1.15,2013-01-11 23:18:00,
2013-01-11 17:23:00,37.8,37.5,29.45,SE,144,1.0,4.0,99,0.00,,,0.04,Wunderground v.1.15,2013-01-11 23:23:00,
2013-01-11 17:28:00,37.7,37.4,29.44,East,99,4.0,7.0,99,0.00,,,0.04,Wunderground v.1.15,2013-01-11 23:28:00,
2013-01-11 17:33:00,37.7,37.4,29.43,SSE,150,5.0,8.0,99,0.00,,,0.04,Wunderground v.1.15,2013-01-11 23:33:00,
2013-01-11 17:38:00,37.8,37.5,29.43,SE,137,2.0,8.0,99,0.00,,,0.04,Wunderground v.1.15,2013-01-11 23:38:00,
2013-01-11 17:43:00,37.8,37.5,29.43,SE,131,0.0,6.0,99,0.00,,,0.04,Wunderground v.1.15,2013-01-11 23:43:00,
2013-01-11 17:48:00,37.8,37.5,29.43,SSE,150,5.0,7.0,99,0.00,,,0.04,Wunderground v.1.15,2013-01-11 23:48:00,
2013-01-11 17:53:00,37.9,37.6,29.43,SE,144,5.0,8.0,99,0.00,,,0.05,Wunderground v.1.15,2013-01-11 23:53:00,
2013-01-11 17:59:00,37.9,37.6,29.42,SE,146,0.0,8.0,99,0.00,,,0.05,Wunderground v.1.15,2013-01-11 23:59:00,
2013-01-11 18:04:00,37.9,37.6,29.42,East,100,0.0,4.0,99,0.00,,,0.05,Wunderground v.1.15,2013-01-12 00:04:00,
2013-01-11 18:09:00,37.9,37.6,29.42,ESE,117,0.0,6.0,99,0.00,,,0.05,Wunderground v.1.15,2013-01-12 00:09:00,
2013-01-11 18:14:00,38.0,37.7,29.42,South,180,0.0,6.0,99,0.00,,,0.05,Wunderground v.1.15,2013-01-12 00:14:00,
2013-01-11 18:19:00,38.0,37.7,29.42,ENE,68,5.0,7.0,99,0.00,,,0.05,Wunderground v.1.15,2013-01-12 00:19:00,
2013-01-11 18:24:00,38.1,38.1,29.42,SSE,166,0.0,7.0,100,0.00,,,0.05,Wunderground v.1.15,2013-01-12 00:24:00,
2013-01-11 18:29:00,38.1,38.1,29.41,SSE,166,0.0,7.0,100,0.00,,,0.05,Wunderground v.1.15,2013-01-12 00:29:00,
2013-01-11 18:34:00,38.2,38.2,29.41,ESE,115,2.0,8.0,100,0.00,,,0.05,Wunderground v.1.15,2013-01-12 00:34:00,
2013-01-11 18:39:00,38.2,38.2,29.42,SSE,162,2.0,8.0,100,0.00,,,0.05,Wunderground v.1.15,2013-01-12 00:39:00,
2013-01-11 18:44:00,38.3,38.3,29.41,South,181,0.0,9.0,100,0.00,,,0.05,Wunderground v.1.15,2013-01-12 00:44:00,
2013-01-11 18:49:00,38.3,38.3,29.41,SE,137,0.0,9.0,100,0.00,,,0.05,Wunderground v.1.15,2013-01-12 00:49:00,
2013-01-11 18:54:00,38.3,38.3,29.41,SSE,151,2.0,7.0,100,0.00,,,0.05,Wunderground v.1.15,2013-01-12 00:54:00,
2013-01-11 19:00:00,38.2,38.2,29.40,SSE,153,5.0,5.0,100,0.00,,,0.05,Wunderground v.1.15,2013-01-12 01:00:00,
2013-01-11 19:05:00,38.3,38.3,29.41,ESE,111,0.0,6.0,100,0.00,,,0.05,Wunderground v.1.15,2013-01-12 01:05:00,
2013-01-11 19:10:00,38.3,38.3,29.41,SSE,153,0.0,3.0,100,0.00,,,0.05,Wunderground v.1.15,2013-01-12 01:10:00,
2013-01-11 19:15:00,38.3,38.3,29.41,SE,146,4.0,7.0,100,0.00,,,0.05,Wunderground v.1.15,2013-01-12 01:15:00,
2013-01-11 19:20:00,38.3,38.3,29.40,SSE,159,2.0,5.0,100,0.00,,,0.05,Wunderground v.1.15,2013-01-12 01:20:00,
2013-01-11 19:25:00,38.3,38.3,29.40,SSE,153,5.0,5.0,100,0.00,,,0.05,Wunderground v.1.15,2013-01-12 01:25:00,
2013-01-11 19:30:00,38.4,38.4,29.40,SE,134,0.0,2.0,100,0.00,,,0.05,Wunderground v.1.15,2013-01-12 01:30:00,
2013-01-11 19:36:00,38.4,38.4,29.40,SE,132,0.0,7.0,100,0.00,,,0.05,Wunderground v.1.15,2013-01-12 01:36:00,
2013-01-11 19:41:00,38.5,38.5,29.40,SSE,165,7.0,7.0,100,0.00,,,0.05,Wunderground v.1.15,2013-01-12 01:41:00,
2013-01-11 19:46:00,38.7,38.7,29.40,SSE,160,5.0,7.0,100,0.00,,,0.05,Wunderground v.1.15,2013-01-12 01:46:00,
2013-01-11 19:51:00,38.8,38.8,29.40,SSE,159,2.0,5.0,100,0.00,,,0.05,Wunderground v.1.15,2013-01-12 01:51:00,
2013-01-11 19:56:00,39.0,39.0,29.40,SSE,161,2.0,7.0,100,0.00,,,0.05,Wunderground v.1.15,2013-01-12 01:56:00,
2013-01-11 20:01:00,39.2,39.2,29.40,SSE,157,4.0,6.0,100,0.00,,,0.05,Wunderground v.1.15,2013-01-12 02:01:00,
2013-01-11 20:06:00,39.4,39.4,29.40,South,190,0.0,9.0,100,0.00,,,0.05,Wunderground v.1.15,2013-01-12 02:06:00,
2013-01-11 20:11:00,39.6,39.6,29.40,SSE,148,4.0,5.0,100,0.00,,,0.05,Wunderground v.1.15,2013-01-12 02:11:00,
2013-01-11 20:16:00,39.8,39.8,29.40,South,173,4.0,8.0,100,0.00,,,0.05,Wunderground v.1.15,2013-01-12 02:16:00,
2013-01-11 20:21:00,40.0,40.0,29.40,South,175,0.0,7.0,100,0.00,,,0.05,Wunderground v.1.15,2013-01-12 02:21:00,
2013-01-11 20:27:00,40.0,40.0,29.40,SSE,167,7.0,10.0,100,0.00,,,0.05,Wunderground v.1.15,2013-01-12 02:27:00,
2013-01-11 20:32:00,40.1,40.1,29.39,South,172,5.0,6.0,100,0.00,,,0.05,Wunderground v.1.15,2013-01-12 02:32:00,
2013-01-11 20:37:00,40.1,40.1,29.40,SSW,195,3.0,7.0,100,0.00,,,0.05,Wunderground v.1.15,2013-01-12 02:37:00,
2013-01-11 20:42:00,40.2,40.2,29.39,SSW,202,4.0,10.0,100,0.00,,,0.05,Wunderground v.1.15,2013-01-12 02:42:00,
2013-01-11 20:47:00,40.1,40.1,29.39,SSE,167,4.0,11.0,100,0.00,,,0.05,Wunderground v.1.15,2013-01-12 02:47:00,
2013-01-11 20:52:00,40.2,40.2,29.39,South,179,4.0,8.0,100,0.00,,,0.05,Wunderground v.1.15,2013-01-12 02:52:00,
2013-01-11 20:57:00,40.2,40.2,29.39,SSW,192,4.0,8.0,100,0.00,,,0.05,Wunderground v.1.15,2013-01-12 02:57:00,
2013-01-11 21:02:00,40.1,40.1,29.39,South,180,7.0,8.0,100,0.00,,,0.05,Wunderground v.1.15,2013-01-12 03:02:00,
2013-01-11 21:08:00,40.1,40.1,29.39,SE,145,4.0,8.0,100,0.00,,,0.05,Wunderground v.1.15,2013-01-12 03:08:00,
2013-01-11 21:13:00,40.1,40.1,29.39,South,175,2.0,6.0,100,0.00,,,0.05,Wunderground v.1.15,2013-01-12 03:13:00,
2013-01-11 21:18:00,40.1,40.1,29.38,SSW,193,5.0,8.0,100,0.00,,,0.05,Wunderground v.1.15,2013-01-12 03:18:00,
2013-01-11 21:23:00,40.1,40.1,29.38,South,169,6.0,7.0,100,0.00,,,0.05,Wunderground v.1.15,2013-01-12 03:23:00,
2013-01-11 21:28:00,40.4,40.4,29.38,SSW,209,4.0,7.0,100,0.00,,,0.05,Wunderground v.1.15,2013-01-12 03:28:00,
2013-01-11 21:33:00,40.5,40.5,29.38,SSW,193,6.0,8.0,100,0.00,,,0.05,Wunderground v.1.15,2013-01-12 03:33:00,
2013-01-11 21:39:00,40.5,40.5,29.38,South,182,2.0,8.0,100,0.00,,,0.05,Wunderground v.1.15,2013-01-12 03:39:00,
2013-01-11 21:44:00,40.6,40.6,29.38,SSE,153,6.0,6.0,100,0.00,,,0.05,Wunderground v.1.15,2013-01-12 03:44:00,
2013-01-11 21:49:00,40.6,40.6,29.38,SSW,211,0.0,8.0,100,0.00,,,0.05,Wunderground v.1.15,2013-01-12 03:49:00,
2013-01-11 21:54:00,40.8,40.8,29.38,South,172,2.0,9.0,100,0.00,,,0.05,Wunderground v.1.15,2013-01-12 03:54:00,
2013-01-11 21:59:00,41.0,41.0,29.38,South,185,0.0,10.0,100,0.00,,,0.05,Wunderground v.1.15,2013-01-12 03:59:00,
2013-01-11 22:04:00,41.1,41.1,29.38,SSW,192,5.0,14.0,100,0.00,,,0.05,Wunderground v.1.15,2013-01-12 04:04:00,
2013-01-11 22:09:00,41.2,41.2,29.38,SSW,196,8.0,14.0,100,0.00,,,0.05,Wunderground v.1.15,2013-01-12 04:09:00,
2013-01-11 22:14:00,41.2,41.2,29.38,SSW,200,7.0,8.0,100,0.00,,,0.05,Wunderground v.1.15,2013-01-12 04:14:00,
2013-01-11 22:20:00,41.1,41.1,29.38,SSW,211,7.0,7.0,100,0.00,,,0.05,Wunderground v.1.15,2013-01-12 04:20:00,
2013-01-11 22:25:00,41.1,41.1,29.38,SSW,207,3.0,10.0,100,0.00,,,0.05,Wunderground v.1.15,2013-01-12 04:25:00,
2013-01-11 22:30:00,41.0,41.0,29.37,WSW,241,6.0,6.0,100,0.00,,,0.05,Wunderground v.1.15,2013-01-12 04:30:00,
2013-01-11 22:35:00,41.0,41.0,29.37,WSW,238,3.0,11.0,100,0.00,,,0.05,Wunderground v.1.15,2013-01-12 04:35:00,
2013-01-11 22:40:00,40.8,40.8,29.37,WSW,239,3.0,5.0,100,0.00,,,0.05,Wunderground v.1.15,2013-01-12 04:40:00,
2013-01-11 22:45:00,40.6,40.6,29.37,WSW,248,3.0,12.0,100,0.00,,,0.05,Wunderground v.1.15,2013-01-12 04:45:00,
2013-01-11 22:50:00,40.4,40.4,29.37,WSW,256,6.0,6.0,100,0.00,,,0.05,Wunderground v.1.15,2013-01-12 04:50:00,
2013-01-11 22:56:00,40.2,40.2,29.37,SW,231,4.0,8.0,100,0.00,,,0.05,Wunderground v.1.15,2013-01-12 04:56:00,
2013-01-11 23:01:00,40.0,40.0,29.37,WSW,247,8.0,9.0,100,0.00,,,0.05,Wunderground v.1.15,2013-01-12 05:01:00,
2013-01-11 23:02:00,40.0,40.0,29.37,SW,218,4.0,9.0,100,0.00,,,0.05,Wunderground v.1.15,2013-01-12 05:02:00,
2013-01-11 23:03:00,40.0,40.0,29.38,SW,234,5.0,9.0,100,0.00,,,0.05,Wunderground v.1.15,2013-01-12 05:03:00,
2013-01-11 23:08:00,39.7,39.7,29.38,SW,234,5.0,11.0,100,0.00,,,0.05,Wunderground v.1.15,2013-01-12 05:08:00,
2013-01-11 23:13:00,39.4,39.4,29.38,WSW,243,3.0,10.0,100,0.00,,,0.05,Wunderground v.1.15,2013-01-12 05:13:00,
2013-01-11 23:18:00,39.2,39.2,29.39,WSW,243,8.0,12.0,100,0.00,,,0.05,Wunderground v.1.15,2013-01-12 05:18:00,
2013-01-11 23:23:00,38.9,38.6,29.39,WSW,241,6.0,9.0,99,0.00,,,0.05,Wunderground v.1.15,2013-01-12 05:23:00,
2013-01-11 23:28:00,38.8,38.5,29.39,SW,226,7.0,11.0,99,0.00,,,0.05,Wunderground v.1.15,2013-01-12 05:28:00,
2013-01-11 23:34:00,38.6,38.6,29.39,West,278,5.0,10.0,100,0.00,,,0.05,Wunderground v.1.15,2013-01-12 05:34:00,
2013-01-11 23:39:00,38.4,38.1,29.39,SW,236,10.0,13.0,99,0.00,,,0.05,Wunderground v.1.15,2013-01-12 05:39:00,
2013-01-11 23:44:00,38.3,38.0,29.39,SSW,209,4.0,11.0,99,0.00,,,0.05,Wunderground v.1.15,2013-01-12 05:44:00,
2013-01-11 23:49:00,38.1,37.8,29.39,WSW,242,3.0,11.0,99,0.00,,,0.05,Wunderground v.1.15,2013-01-12 05:49:00,
2013-01-11 23:54:00,37.9,37.6,29.39,SW,234,8.0,8.0,99,0.00,,,0.05,Wunderground v.1.15,2013-01-12 05:54:00,
2013-01-11 23:59:00,37.8,37.5,29.39,SW,236,3.0,12.0,99,0.00,,,0.05,Wunderground v.1.15,2013-01-12 05:59:00,